createdAt,value
2023-02-24T00:01:59.990Z,21.30
2023-02-24T00:04:32.973Z,20.65
2023-02-24T00:07:00.175Z,13.90
2023-02-24T00:09:28.221Z,19.13
2023-02-24T00:12:01.199Z,19.48
2023-02-24T00:14:33.850Z,15.48
2023-02-24T00:17:01.132Z,23.40
2023-02-24T00:19:32.744Z,15.90
2023-02-24T00:22:00.748Z,12.85
2023-02-24T00:24:27.892Z,16.70
2023-02-24T00:26:57.090Z,17.67
2023-02-24T00:29:24.246Z,19.73
2023-02-24T00:31:59.201Z,21.30
2023-02-24T00:34:27.353Z,18.83
2023-02-24T00:36:54.148Z,22.02
2023-02-24T00:39:30.811Z,21.40
2023-02-24T00:42:06.889Z,19.08
2023-02-24T00:44:41.677Z,20.38
2023-02-24T00:47:10.497Z,15.52
2023-02-24T00:49:42.762Z,19.80
2023-02-24T00:52:13.724Z,23.93
2023-02-24T00:54:44.342Z,21.85
2023-02-24T00:57:11.832Z,18.48
2023-02-24T00:59:39.040Z,22.25
2023-02-24T01:02:07.256Z,19.17
2023-02-24T01:04:34.926Z,23.95
2023-02-24T01:07:01.859Z,18.60
2023-02-24T01:09:30.881Z,19.20
2023-02-24T01:12:16.572Z,15.50
2023-02-24T01:14:47.008Z,20.35
2023-02-24T01:17:14.498Z,27.98
2023-02-24T01:19:41.021Z,22.02
2023-02-24T01:22:10.077Z,20.80
2023-02-24T01:24:41.267Z,19.13
2023-02-24T01:27:08.410Z,18.05
2023-02-24T01:29:39.414Z,19.83
2023-02-24T01:32:07.676Z,20.27
2023-02-24T01:34:35.096Z,19.45
2023-02-24T01:37:01.945Z,17.75
2023-02-24T01:39:28.458Z,20.05
2023-02-24T01:41:54.921Z,15.30
2023-02-24T01:44:25.219Z,16.38
2023-02-24T01:46:53.621Z,20.10
2023-02-24T01:49:36.978Z,18.00
2023-02-24T01:52:18.086Z,21.73
2023-02-24T01:54:50.282Z,21.83
2023-02-24T01:57:19.914Z,14.60
2023-02-24T01:59:50.043Z,17.02
2023-02-24T02:02:18.357Z,14.65
2023-02-24T02:04:58.526Z,15.82
2023-02-24T02:07:27.638Z,20.33
2023-02-24T02:09:55.104Z,14.85
2023-02-24T02:12:22.680Z,14.43
2023-02-24T02:14:53.716Z,19.35
2023-02-24T02:17:43.244Z,15.20
2023-02-24T02:20:15.800Z,17.98
2023-02-24T02:23:04.359Z,18.47
2023-02-24T02:25:36.538Z,15.30
2023-02-24T02:29:01.670Z,19.50
2023-02-24T02:31:29.298Z,13.52
2023-02-24T02:34:31.809Z,13.95
2023-02-24T02:37:27.024Z,16.10
2023-02-24T02:40:16.181Z,15.30
2023-02-24T02:43:18.789Z,15.30
2023-02-24T02:45:52.323Z,18.65
2023-02-24T02:48:22.648Z,16.08
2023-02-24T02:50:55.613Z,21.42
2023-02-24T02:53:31.572Z,15.85
2023-02-24T02:56:22.089Z,15.30
2023-02-24T02:58:53.957Z,14.45
2023-02-24T03:01:25.310Z,16.45
2023-02-24T03:03:56.014Z,19.85
2023-02-24T03:06:30.235Z,14.63
2023-02-24T03:09:18.010Z,19.30
2023-02-24T03:11:49.292Z,18.27
2023-02-24T03:14:20.351Z,15.50
2023-02-24T03:16:49.306Z,17.38
2023-02-24T03:19:21.021Z,15.68
2023-02-24T03:21:58.194Z,18.42
2023-02-24T03:24:24.658Z,22.13
2023-02-24T03:26:58.495Z,15.63
2023-02-24T03:29:38.883Z,20.25
2023-02-24T03:32:12.743Z,16.45
2023-02-24T03:34:51.124Z,21.35
2023-02-24T03:37:25.609Z,19.75
2023-02-24T03:39:57.732Z,17.60
2023-02-24T03:42:28.662Z,19.63
2023-02-24T03:44:58.249Z,20.65
2023-02-24T03:47:25.975Z,18.95
2023-02-24T03:49:53.155Z,17.38
2023-02-24T03:52:34.884Z,14.32
2023-02-24T03:55:16.815Z,19.02
2023-02-24T03:58:12.782Z,25.50
2023-02-24T04:00:48.499Z,20.92
2023-02-24T04:03:39.487Z,14.05
2023-02-24T04:06:38.332Z,16.60
2023-02-24T04:09:36.818Z,21.00
2023-02-24T04:12:27.070Z,20.38
2023-02-24T04:14:57.285Z,20.38
2023-02-24T04:17:32.147Z,25.30
2023-02-24T04:20:01.414Z,18.58
2023-02-24T04:22:29.413Z,19.77
2023-02-24T04:24:59.799Z,21.80
2023-02-24T04:27:28.252Z,24.95
2023-02-24T04:30:00.074Z,21.80
2023-02-24T04:32:29.478Z,17.70
2023-02-24T04:35:06.941Z,18.05
2023-02-24T04:37:37.329Z,23.70
2023-02-24T04:40:13.424Z,26.48
2023-02-24T04:42:49.350Z,18.90
2023-02-24T04:45:28.163Z,22.38
2023-02-24T04:47:58.016Z,27.40
2023-02-24T04:50:26.012Z,23.90
2023-02-24T04:53:01.336Z,26.83
2023-02-24T04:55:32.976Z,25.65
2023-02-24T04:58:01.035Z,29.17
2023-02-24T05:00:33.456Z,28.85
2023-02-24T05:03:01.844Z,30.73
2023-02-24T05:05:28.787Z,29.30
2023-02-24T05:07:57.585Z,31.15
2023-02-24T05:10:28.140Z,29.88
2023-02-24T05:12:58.265Z,32.58
2023-02-24T05:15:31.249Z,35.78
2023-02-24T05:18:07.819Z,38.38
2023-02-24T05:21:00.358Z,33.47
2023-02-24T05:23:39.370Z,32.03
2023-02-24T05:26:08.579Z,48.55
2023-02-24T05:28:40.546Z,42.38
2023-02-24T05:31:15.042Z,42.53
2023-02-24T05:33:43.848Z,40.17
2023-02-24T05:36:15.196Z,42.78
2023-02-24T05:38:41.893Z,48.08
2023-02-24T05:41:17.011Z,50.85
2023-02-24T05:43:53.298Z,50.38
2023-02-24T05:46:20.437Z,53.47
2023-02-24T05:48:51.203Z,50.13
2023-02-24T05:51:17.725Z,45.67
2023-02-24T05:53:44.241Z,51.03
2023-02-24T05:56:11.114Z,50.42
2023-02-24T05:58:39.301Z,60.20
2023-02-24T06:01:16.166Z,55.35
2023-02-24T06:03:47.895Z,56.35
2023-02-24T06:06:17.745Z,61.83
2023-02-24T06:08:50.916Z,51.20
2023-02-24T06:11:20.672Z,60.28
2023-02-24T06:13:48.059Z,49.50
2023-02-24T06:16:17.150Z,54.50
2023-02-24T06:18:47.893Z,53.38
2023-02-24T06:21:15.238Z,62.58
2023-02-24T06:23:41.747Z,56.60
2023-02-24T06:26:19.205Z,56.55
2023-02-24T06:28:47.998Z,56.30
2023-02-24T06:31:15.171Z,68.18
2023-02-24T06:33:42.098Z,65.25
2023-02-24T06:36:09.085Z,62.78
2023-02-24T06:38:36.967Z,68.22
2023-02-24T06:41:10.721Z,69.30
2023-02-24T06:43:43.223Z,69.57
2023-02-24T06:46:11.979Z,67.32
2023-02-24T06:48:38.805Z,61.45
2023-02-24T06:51:06.662Z,58.38
2023-02-24T06:53:35.895Z,64.38
2023-02-24T06:56:07.277Z,54.05
2023-02-24T06:58:33.923Z,50.92
2023-02-24T07:01:02.644Z,64.57
2023-02-24T07:03:47.202Z,55.55
2023-02-24T07:06:28.582Z,64.07
2023-02-24T07:08:58.337Z,54.78
2023-02-24T07:11:25.932Z,54.95
2023-02-24T07:13:54.593Z,50.75
2023-02-24T07:16:25.686Z,49.05
2023-02-24T07:18:56.966Z,52.13
2023-02-24T07:21:25.533Z,45.58
2023-02-24T07:23:58.912Z,51.55
2023-02-24T07:26:27.873Z,48.22
2023-02-24T07:28:55.211Z,70.30
2023-02-24T07:31:24.458Z,51.58
2023-02-24T07:33:57.281Z,48.97
2023-02-24T07:36:24.824Z,49.17
2023-02-24T07:38:53.946Z,48.78
2023-02-24T07:41:23.179Z,39.40
2023-02-24T07:43:51.848Z,47.50
2023-02-24T07:46:24.633Z,53.58
2023-02-24T07:48:56.141Z,47.10
2023-02-24T07:51:25.908Z,60.42
2023-02-24T07:53:58.926Z,56.35
2023-02-24T07:56:27.424Z,47.53
2023-02-24T07:58:59.302Z,58.28
2023-02-24T08:01:38.761Z,51.10
2023-02-24T08:04:08.174Z,49.03
2023-02-24T08:06:46.203Z,45.08
2023-02-24T08:09:42.860Z,49.83
2023-02-24T08:12:09.505Z,55.17
2023-02-24T08:14:44.484Z,47.17
2023-02-24T08:17:12.175Z,51.85
2023-02-24T08:19:41.680Z,52.45
2023-02-24T08:22:20.933Z,46.35
2023-02-24T08:24:51.041Z,48.50
2023-02-24T08:27:20.258Z,47.03
2023-02-24T08:30:18.043Z,47.33
2023-02-24T08:32:45.015Z,41.22
2023-02-24T08:35:17.133Z,45.50
2023-02-24T08:37:49.116Z,44.42
2023-02-24T08:40:34.300Z,44.72
2023-02-24T08:43:16.419Z,40.08
2023-02-24T08:45:51.895Z,43.63
2023-02-24T08:48:32.293Z,41.65
2023-02-24T08:51:02.467Z,40.85
2023-02-24T08:53:31.548Z,44.63
2023-02-24T08:56:00.470Z,44.65
2023-02-24T08:58:27.122Z,48.17
2023-02-24T09:00:59.505Z,37.58
2023-02-24T09:03:28.902Z,35.92
2023-02-24T09:05:58.146Z,36.05
2023-02-24T09:08:24.654Z,32.38
2023-02-24T09:10:52.068Z,37.95
2023-02-24T09:13:18.973Z,32.17
2023-02-24T09:15:45.482Z,32.47
2023-02-24T09:18:14.445Z,33.47
2023-02-24T09:20:56.402Z,35.60
2023-02-24T09:23:29.886Z,36.47
2023-02-24T09:25:57.181Z,33.75
2023-02-24T09:28:27.874Z,33.15
2023-02-24T09:30:57.457Z,33.33
2023-02-24T09:33:41.196Z,33.17
2023-02-24T09:38:59.525Z,25.25
2023-02-24T09:42:18.421Z,27.33
2023-02-24T09:44:52.674Z,29.33
2023-02-24T09:47:31.150Z,28.95
2023-02-24T09:50:04.520Z,31.98
2023-02-24T09:52:41.746Z,24.15
2023-02-24T09:55:25.086Z,27.33
2023-02-24T09:58:18.818Z,21.67
2023-02-24T10:01:21.117Z,24.58
2023-02-24T10:04:11.658Z,25.48
2023-02-24T10:06:49.324Z,25.63
2023-02-24T10:09:49.248Z,22.00
2023-02-24T10:12:18.231Z,22.48
2023-02-24T10:15:17.222Z,20.15
2023-02-24T10:17:55.382Z,21.98
2023-02-24T10:20:39.313Z,15.65
2023-02-24T10:23:29.688Z,17.25
2023-02-24T10:26:06.809Z,23.13
2023-02-24T10:28:46.316Z,20.15
2023-02-24T10:31:27.031Z,17.85
2023-02-24T10:34:01.729Z,21.02
2023-02-24T10:36:35.360Z,18.88
2023-02-24T10:39:17.309Z,19.10
2023-02-24T10:41:46.825Z,15.48
2023-02-24T10:44:20.820Z,21.83
2023-02-24T10:46:47.900Z,17.15
2023-02-24T10:49:16.860Z,17.85
2023-02-24T10:51:51.234Z,16.45
2023-02-24T10:54:34.620Z,19.70
2023-02-24T10:57:15.456Z,16.27
2023-02-24T11:00:16.105Z,20.08
2023-02-24T11:02:57.627Z,16.15
2023-02-24T11:05:27.326Z,17.10
2023-02-24T11:08:11.080Z,20.98
2023-02-24T11:10:58.723Z,17.25
2023-02-24T11:13:45.680Z,14.77
2023-02-24T11:16:31.013Z,19.10
2023-02-24T11:18:57.969Z,21.17
2023-02-24T11:21:26.533Z,19.38
2023-02-24T11:23:58.485Z,16.98
2023-02-24T11:26:43.647Z,26.02
2023-02-24T11:29:31.368Z,18.20
2023-02-24T11:32:22.187Z,16.17
2023-02-24T11:35:12.622Z,15.60
2023-02-24T11:37:53.871Z,16.15
2023-02-24T11:40:25.647Z,17.15
2023-02-24T11:43:04.200Z,16.48
2023-02-24T11:45:51.672Z,19.55
2023-02-24T11:48:21.086Z,18.23
2023-02-24T11:50:53.833Z,22.08
2023-02-24T11:53:29.195Z,21.58
2023-02-24T11:56:26.201Z,18.25
2023-02-24T11:59:18.952Z,17.67
2023-02-24T12:01:48.369Z,21.77
2023-02-24T12:04:37.305Z,18.58
2023-02-24T12:07:25.267Z,21.55
2023-02-24T12:10:16.678Z,23.65
2023-02-24T12:12:46.649Z,20.40
2023-02-24T12:15:25.268Z,28.40
2023-02-24T12:18:18.055Z,25.60
2023-02-24T12:20:52.692Z,24.17
2023-02-24T12:23:39.541Z,22.45
2023-02-24T12:26:18.235Z,19.92
2023-02-24T12:28:58.886Z,25.13
2023-02-24T12:31:54.532Z,19.05
2023-02-24T12:34:30.122Z,22.58
2023-02-24T12:37:16.716Z,18.73
2023-02-24T12:40:12.741Z,18.38
2023-02-24T12:43:17.150Z,22.77
2023-02-24T12:45:52.526Z,23.02
2023-02-24T12:48:50.430Z,16.52
2023-02-24T12:51:21.408Z,17.33
2023-02-24T12:54:04.949Z,17.40
2023-02-24T12:56:45.613Z,20.98
2023-02-24T12:59:19.224Z,17.63
2023-02-24T13:01:55.150Z,18.05
2023-02-24T13:04:40.333Z,21.95
2023-02-24T13:07:19.353Z,22.50
2023-02-24T13:10:09.537Z,26.58
2023-02-24T13:12:57.707Z,20.20
2023-02-24T13:15:27.851Z,21.25
2023-02-24T13:17:57.955Z,23.95
2023-02-24T13:20:34.221Z,14.88
2023-02-24T13:23:03.478Z,17.98
2023-02-24T13:25:38.429Z,22.08
2023-02-24T13:28:21.372Z,18.60
2023-02-24T13:30:58.289Z,20.38
2023-02-24T13:33:30.346Z,23.00
2023-02-24T13:36:13.475Z,23.60
2023-02-24T13:38:41.977Z,21.83
2023-02-24T13:41:17.831Z,19.92
2023-02-24T13:43:53.518Z,23.17
2023-02-24T13:46:20.095Z,18.52
2023-02-24T13:48:59.718Z,20.95
2023-02-24T13:51:52.478Z,18.75
2023-02-24T13:54:21.861Z,25.07
2023-02-24T13:56:57.350Z,20.23
2023-02-24T13:59:35.689Z,20.45
2023-02-24T14:02:19.630Z,19.70
2023-02-24T14:04:52.047Z,15.68
2023-02-24T14:07:25.778Z,20.95
2023-02-24T14:09:57.237Z,18.50
2023-02-24T14:12:26.774Z,25.38
2023-02-24T14:14:54.098Z,26.25
2023-02-24T14:17:29.470Z,26.30
2023-02-24T14:20:07.358Z,23.33
2023-02-24T14:22:34.754Z,22.77
2023-02-24T14:25:03.406Z,23.85
2023-02-24T14:27:30.713Z,21.15
2023-02-24T14:29:57.611Z,17.05
2023-02-24T14:32:26.734Z,22.13
2023-02-24T14:34:54.972Z,21.00
2023-02-24T14:37:25.999Z,22.00
2023-02-24T14:39:59.539Z,19.80
2023-02-24T14:42:28.003Z,25.45
2023-02-24T14:44:57.728Z,21.15
2023-02-24T14:47:27.953Z,22.17
2023-02-24T14:50:02.493Z,27.95
2023-02-24T14:52:44.985Z,23.33
2023-02-24T14:55:20.948Z,23.27
2023-02-24T14:58:01.885Z,25.45
2023-02-24T15:00:37.018Z,28.67
2023-02-24T15:03:09.363Z,24.20
2023-02-24T15:05:41.471Z,25.67
2023-02-24T15:08:29.413Z,22.90
2023-02-24T15:10:56.322Z,26.77
2023-02-24T15:13:44.827Z,25.88
2023-02-24T15:16:18.061Z,23.38
2023-02-24T15:18:49.371Z,23.85
2023-02-24T15:21:28.619Z,26.73
2023-02-24T15:24:03.492Z,22.88
2023-02-24T15:26:33.850Z,25.80
2023-02-24T15:29:13.986Z,23.75
2023-02-24T15:31:47.216Z,23.30
2023-02-24T15:34:22.356Z,21.55
2023-02-24T15:36:51.271Z,24.27
2023-02-24T15:39:23.224Z,20.88
2023-02-24T15:41:52.415Z,22.52
2023-02-24T15:44:52.936Z,31.95
2023-02-24T15:47:32.625Z,18.85
2023-02-24T15:49:59.406Z,23.27
2023-02-24T15:52:28.685Z,24.90
2023-02-24T15:54:57.961Z,23.50
2023-02-24T15:57:25.680Z,22.35
2023-02-24T15:59:52.593Z,22.88
2023-02-24T16:02:21.197Z,20.33
2023-02-24T16:04:49.025Z,32.70
2023-02-24T16:07:20.218Z,26.70
2023-02-24T16:09:48.929Z,22.05
2023-02-24T16:12:21.837Z,22.10
2023-02-24T16:14:50.308Z,22.67
2023-02-24T16:17:32.033Z,20.15
2023-02-24T16:19:59.189Z,20.88
2023-02-24T16:22:26.340Z,23.00
2023-02-24T16:24:52.889Z,25.02
2023-02-24T16:27:22.063Z,22.20
2023-02-24T16:29:49.649Z,21.92
2023-02-24T16:32:16.415Z,23.23
2023-02-24T16:34:43.085Z,21.20
2023-02-24T16:37:21.845Z,23.52
2023-02-24T16:39:49.474Z,22.88
2023-02-24T16:42:17.650Z,23.92
2023-02-24T16:44:44.633Z,18.63
2023-02-24T16:47:17.113Z,23.00
2023-02-24T16:49:43.669Z,21.92
2023-02-24T16:52:12.908Z,21.45
2023-02-24T16:54:39.438Z,18.95
2023-02-24T16:57:06.174Z,24.95
2023-02-24T16:59:32.630Z,27.30
2023-02-24T17:01:59.635Z,26.00
2023-02-24T17:04:26.200Z,16.35
2023-02-24T17:06:52.766Z,25.63
2023-02-24T17:09:19.287Z,21.48
2023-02-24T17:11:45.928Z,18.58
2023-02-24T17:14:20.276Z,19.23
2023-02-24T17:16:47.198Z,22.40
2023-02-24T17:19:14.141Z,18.38
2023-02-24T17:21:44.286Z,20.17
2023-02-24T17:24:19.159Z,25.27
2023-02-24T17:26:46.574Z,22.90
2023-02-24T17:29:14.616Z,20.35
2023-02-24T17:31:42.298Z,25.80
2023-02-24T17:34:09.430Z,21.35
2023-02-24T17:36:36.028Z,22.70
2023-02-24T17:39:02.585Z,20.38
2023-02-24T17:41:29.481Z,15.65
2023-02-24T17:43:56.016Z,20.40
2023-02-24T17:46:23.059Z,27.83
2023-02-24T17:48:49.842Z,27.80
2023-02-24T17:51:18.209Z,23.40
2023-02-24T17:53:45.011Z,18.90
2023-02-24T17:56:12.175Z,20.92
2023-02-24T17:58:39.192Z,23.85
2023-02-24T18:01:06.268Z,17.73
2023-02-24T18:03:34.595Z,20.35
2023-02-24T18:06:04.198Z,25.50
2023-02-24T18:08:33.465Z,18.35
2023-02-24T18:11:00.870Z,20.48
2023-02-24T18:13:29.201Z,22.38
2023-02-24T18:15:56.311Z,18.05
2023-02-24T18:18:23.806Z,16.40
2023-02-24T18:20:50.353Z,15.65
2023-02-24T18:23:17.187Z,17.55
2023-02-24T18:25:43.734Z,17.48
2023-02-24T18:28:10.254Z,21.88
2023-02-24T18:30:39.530Z,24.20
2023-02-24T18:33:06.343Z,17.58
2023-02-24T18:35:33.013Z,22.55
2023-02-24T18:37:59.547Z,28.20
2023-02-24T18:40:27.075Z,18.33
2023-02-24T18:42:53.816Z,19.50
2023-02-24T18:45:21.996Z,25.83
2023-02-24T18:47:51.487Z,20.35
2023-02-24T18:50:18.221Z,17.35
2023-02-24T18:52:44.791Z,19.30
2023-02-24T18:55:11.260Z,25.02
2023-02-24T18:57:37.799Z,24.23
2023-02-24T19:00:05.787Z,18.85
2023-02-24T19:02:32.371Z,20.52
2023-02-24T19:04:58.935Z,32.65
2023-02-24T19:07:25.469Z,17.80
2023-02-24T19:09:52.128Z,15.95
2023-02-24T19:12:20.404Z,29.33
2023-02-24T19:14:51.320Z,22.88
2023-02-24T19:17:18.113Z,25.73
2023-02-24T19:19:46.621Z,22.15
2023-02-24T19:22:13.279Z,15.57
2023-02-24T19:24:41.057Z,19.98
2023-02-24T19:27:08.663Z,21.33
2023-02-24T19:29:35.493Z,21.02
2023-02-24T19:32:02.167Z,17.63
2023-02-24T19:34:28.791Z,23.52
2023-02-24T19:36:55.289Z,23.55
2023-02-24T19:39:21.989Z,24.45
2023-02-24T19:41:49.783Z,17.75
2023-02-24T19:44:16.936Z,18.63
2023-02-24T19:46:43.495Z,23.13
2023-02-24T19:49:10.010Z,21.15
2023-02-24T19:51:36.627Z,24.50
2023-02-24T19:54:05.889Z,21.23
2023-02-24T19:56:36.871Z,16.45
2023-02-24T19:59:06.112Z,18.52
2023-02-24T20:01:33.219Z,20.88
2023-02-24T20:04:02.051Z,15.07
2023-02-24T20:06:37.249Z,14.55
2023-02-24T20:09:10.205Z,18.55
2023-02-24T20:11:38.783Z,19.77
2023-02-24T20:14:06.622Z,18.95
2023-02-24T20:16:34.801Z,19.75
2023-02-24T20:19:01.853Z,19.90
2023-02-24T20:21:28.804Z,21.60
2023-02-24T20:23:55.355Z,18.17
2023-02-24T20:26:22.202Z,20.10
2023-02-24T20:28:49.019Z,17.88
2023-02-24T20:31:19.196Z,21.10
2023-02-24T20:33:47.744Z,17.42
2023-02-24T20:36:26.026Z,18.80
2023-02-24T20:38:53.511Z,19.02
2023-02-24T20:41:21.570Z,22.60
2023-02-24T20:43:48.565Z,14.55
2023-02-24T20:46:18.980Z,18.98
2023-02-24T20:48:45.682Z,19.35
2023-02-24T20:51:12.637Z,17.20
2023-02-24T20:53:54.725Z,13.70
2023-02-24T20:56:23.790Z,18.27
2023-02-24T20:58:53.054Z,16.98
2023-02-24T21:01:21.145Z,23.38
2023-02-24T21:03:48.277Z,14.32
2023-02-24T21:06:17.132Z,23.05
2023-02-24T21:08:44.447Z,21.42
2023-02-24T21:11:12.095Z,17.08
2023-02-24T21:13:43.864Z,21.42
2023-02-24T21:16:11.847Z,23.98
2023-02-24T21:18:40.391Z,13.43
2023-02-24T21:21:08.484Z,17.15
2023-02-24T21:23:35.879Z,17.95
2023-02-24T21:26:02.711Z,18.95
2023-02-24T21:28:29.403Z,16.92
2023-02-24T21:30:56.534Z,15.38
2023-02-24T21:33:23.170Z,19.77
2023-02-24T21:36:00.753Z,14.27
2023-02-24T21:38:27.266Z,18.58
2023-02-24T21:40:54.312Z,19.88
2023-02-24T21:43:21.745Z,16.17
2023-02-24T21:45:48.308Z,16.13
2023-02-24T21:48:14.905Z,19.15
2023-02-24T21:50:41.433Z,20.50
2023-02-24T21:53:08.087Z,12.75
2023-02-24T21:55:37.056Z,15.43
2023-02-24T21:58:03.556Z,16.98
2023-02-24T22:00:30.314Z,24.77
2023-02-24T22:02:57.026Z,18.00
2023-02-24T22:05:25.813Z,19.20
2023-02-24T22:07:53.057Z,19.27
2023-02-24T22:10:22.377Z,15.48
2023-02-24T22:12:50.741Z,13.63
2023-02-24T22:15:17.349Z,17.23
2023-02-24T22:17:43.853Z,13.20
2023-02-24T22:20:13.346Z,12.95
2023-02-24T22:22:41.933Z,13.38
2023-02-24T22:25:12.511Z,10.30
2023-02-24T22:27:39.721Z,12.90
2023-02-24T22:30:08.015Z,11.60
2023-02-24T22:32:35.612Z,13.63
2023-02-24T22:35:02.263Z,12.73
2023-02-24T22:37:29.849Z,14.45
2023-02-24T22:39:56.454Z,13.07
2023-02-24T22:42:23.033Z,9.05
2023-02-24T22:44:49.506Z,12.45
2023-02-24T22:47:16.946Z,11.95
2023-02-24T22:49:43.645Z,11.27
2023-02-24T22:52:12.047Z,14.73
2023-02-24T22:54:38.578Z,12.45
2023-02-24T22:57:05.201Z,13.63
2023-02-24T22:59:31.708Z,15.55
2023-02-24T23:01:59.766Z,18.15
2023-02-24T23:04:29.269Z,15.65
2023-02-24T23:06:57.201Z,16.08
2023-02-24T23:09:24.139Z,16.42
2023-02-24T23:11:50.902Z,16.45
2023-02-24T23:14:17.799Z,14.35
2023-02-24T23:16:46.456Z,12.63
2023-02-24T23:19:18.568Z,16.00
2023-02-24T23:21:51.174Z,15.90
2023-02-24T23:24:18.606Z,17.23
2023-02-24T23:26:47.867Z,15.65
2023-02-24T23:29:17.526Z,14.55
2023-02-24T23:31:45.391Z,12.45
2023-02-24T23:34:12.531Z,14.85
2023-02-24T23:36:45.253Z,15.13
2023-02-24T23:39:14.392Z,13.45
2023-02-24T23:41:44.307Z,12.27
2023-02-24T23:44:12.524Z,16.00
2023-02-24T23:46:39.135Z,10.27
2023-02-24T23:49:05.734Z,9.90
2023-02-24T23:51:46.899Z,11.50
2023-02-24T23:54:13.927Z,9.75
2023-02-24T23:56:41.129Z,10.48
2023-02-24T23:59:07.646Z,12.77
